createdAt,value
2022-08-28T00:01:01.881Z,19.21
2022-08-28T00:03:30.394Z,19.53
2022-08-28T00:05:57.604Z,19.26
2022-08-28T00:08:24.699Z,19.15
2022-08-28T00:10:52.233Z,19.26
2022-08-28T00:13:22.076Z,19.25
2022-08-28T00:15:55.785Z,19.59
2022-08-28T00:18:23.876Z,19.61
2022-08-28T00:20:51.755Z,19.30
2022-08-28T00:23:19.660Z,18.45
2022-08-28T00:25:46.915Z,18.98
2022-08-28T00:28:23.728Z,19.14
2022-08-28T00:30:55.673Z,18.46
2022-08-28T00:33:24.153Z,18.86
2022-08-28T00:35:51.952Z,19.41
2022-08-28T00:38:21.715Z,19.03
2022-08-28T00:40:52.639Z,19.03
2022-08-28T00:43:41.613Z,18.97
2022-08-28T00:46:20.072Z,18.96
2022-08-28T00:48:48.095Z,18.92
2022-08-28T00:51:37.155Z,18.57
2022-08-28T00:54:07.752Z,18.51
2022-08-28T00:56:38.468Z,18.90
2022-08-28T00:59:11.755Z,19.46
2022-08-28T01:01:39.225Z,18.92
2022-08-28T01:04:06.716Z,18.70
2022-08-28T01:06:35.841Z,18.17
2022-08-28T01:09:03.660Z,18.34
2022-08-28T01:11:32.639Z,19.00
2022-08-28T01:14:03.169Z,18.90
2022-08-28T01:16:33.818Z,19.20
2022-08-28T01:19:02.269Z,19.06
2022-08-28T01:21:58.764Z,18.87
2022-08-28T01:24:26.634Z,18.77
2022-08-28T01:26:53.607Z,19.36
2022-08-28T01:29:20.938Z,19.10
2022-08-28T01:34:30.244Z,18.30
2022-08-28T01:36:58.540Z,18.44
2022-08-28T01:39:28.534Z,18.28
2022-08-28T01:41:57.068Z,17.67
2022-08-28T01:44:28.231Z,18.28
2022-08-28T01:46:58.870Z,18.53
2022-08-28T01:49:30.006Z,18.94
2022-08-28T01:51:58.028Z,19.34
2022-08-28T01:54:27.127Z,19.49
2022-08-28T01:56:55.130Z,18.82
2022-08-28T01:59:22.583Z,18.85
2022-08-28T02:01:49.764Z,19.31
2022-08-28T02:04:16.922Z,18.56
2022-08-28T02:06:44.187Z,17.76
2022-08-28T02:09:14.508Z,17.59
2022-08-28T02:11:46.493Z,18.01
2022-08-28T02:14:14.323Z,18.23
2022-08-28T02:16:41.255Z,18.43
2022-08-28T02:19:08.333Z,18.25
2022-08-28T02:21:35.741Z,18.24
2022-08-28T02:24:03.254Z,17.86
2022-08-28T02:26:31.718Z,17.89
2022-08-28T02:28:59.390Z,17.80
2022-08-28T02:31:28.146Z,18.64
2022-08-28T02:33:55.914Z,18.56
2022-08-28T02:36:24.153Z,18.50
2022-08-28T02:38:57.399Z,18.32
2022-08-28T02:41:25.898Z,18.07
2022-08-28T02:43:53.269Z,18.20
2022-08-28T02:46:20.585Z,18.39
2022-08-28T02:48:47.677Z,18.14
2022-08-28T02:51:15.320Z,17.94
2022-08-28T02:53:42.950Z,18.15
2022-08-28T02:56:10.769Z,18.00
2022-08-28T02:58:39.352Z,18.30
2022-08-28T03:01:10.017Z,18.80
2022-08-28T03:03:38.099Z,18.58
2022-08-28T03:06:12.537Z,18.46
2022-08-28T03:08:42.092Z,17.54
2022-08-28T03:11:10.111Z,17.51
2022-08-28T03:13:37.096Z,17.72
2022-08-28T03:16:05.225Z,18.13
2022-08-28T03:18:33.225Z,18.36
2022-08-28T03:21:00.928Z,17.85
2022-08-28T03:23:28.230Z,18.18
2022-08-28T03:26:12.458Z,18.38
2022-08-28T03:28:48.734Z,18.29
2022-08-28T03:31:22.205Z,18.35
2022-08-28T03:33:50.265Z,18.43
2022-08-28T03:36:23.868Z,18.13
2022-08-28T03:38:53.302Z,17.69
2022-08-28T03:41:23.485Z,17.68
2022-08-28T03:43:51.655Z,17.69
2022-08-28T03:46:23.810Z,18.13
2022-08-28T03:48:53.210Z,18.36
2022-08-28T03:51:29.376Z,18.86
2022-08-28T03:54:01.845Z,18.61
2022-08-28T03:56:30.696Z,17.53
2022-08-28T03:59:01.747Z,18.27
2022-08-28T04:01:28.833Z,18.40
2022-08-28T04:03:57.215Z,18.44
2022-08-28T04:06:24.659Z,17.90
2022-08-28T04:08:51.803Z,18.25
2022-08-28T04:11:19.023Z,18.04
2022-08-28T04:13:46.010Z,18.17
2022-08-28T04:16:17.642Z,18.29
2022-08-28T04:18:47.740Z,18.59
2022-08-28T04:21:19.590Z,18.28
2022-08-28T04:23:47.739Z,18.27
2022-08-28T04:26:19.041Z,18.01
2022-08-28T04:28:47.308Z,17.62
2022-08-28T04:31:15.264Z,18.16
2022-08-28T04:33:42.731Z,18.53
2022-08-28T04:36:14.117Z,18.68
2022-08-28T04:38:44.056Z,18.59
2022-08-28T04:41:14.979Z,18.29
2022-08-28T04:43:43.030Z,18.70
2022-08-28T04:46:15.126Z,17.93
2022-08-28T04:48:43.236Z,18.01
2022-08-28T04:51:14.399Z,18.86
2022-08-28T04:53:42.581Z,18.73
2022-08-28T04:56:13.637Z,18.70
2022-08-28T04:58:43.345Z,18.85
2022-08-28T05:01:20.403Z,18.50
2022-08-28T05:03:52.751Z,18.27
2022-08-28T05:06:21.619Z,18.85
2022-08-28T05:08:48.849Z,18.08
2022-08-28T05:11:33.240Z,17.69
2022-08-28T05:14:05.007Z,18.00
2022-08-28T05:16:34.679Z,17.97
2022-08-28T05:19:03.559Z,17.84
2022-08-28T05:21:30.640Z,18.03
2022-08-28T05:23:58.371Z,17.58
2022-08-28T05:26:26.827Z,17.77
2022-08-28T05:28:56.256Z,17.82
2022-08-28T05:31:25.924Z,18.06
2022-08-28T05:33:53.547Z,18.74
2022-08-28T05:36:25.894Z,18.79
2022-08-28T05:39:00.042Z,18.80
2022-08-28T05:41:32.905Z,19.13
2022-08-28T05:44:03.721Z,18.89
2022-08-28T05:46:31.071Z,18.77
2022-08-28T05:49:00.532Z,18.82
2022-08-28T05:51:28.813Z,19.33
2022-08-28T05:53:57.739Z,19.47
2022-08-28T05:56:32.853Z,19.29
2022-08-28T05:59:01.922Z,19.51
2022-08-28T06:01:32.056Z,19.30
2022-08-28T06:04:18.002Z,19.07
2022-08-28T06:06:46.169Z,19.15
2022-08-28T06:09:29.359Z,19.67
2022-08-28T06:11:59.882Z,19.72
2022-08-28T06:14:27.422Z,19.93
2022-08-28T06:16:56.334Z,19.84
2022-08-28T06:19:26.346Z,20.07
2022-08-28T06:22:00.895Z,20.03
2022-08-28T06:24:29.171Z,20.34
2022-08-28T06:26:58.739Z,20.62
2022-08-28T06:29:27.353Z,20.58
2022-08-28T06:31:58.925Z,20.63
2022-08-28T06:34:26.989Z,20.53
2022-08-28T06:36:54.702Z,20.45
2022-08-28T06:39:23.171Z,20.40
2022-08-28T06:41:50.321Z,20.38
2022-08-28T06:44:20.197Z,20.28
2022-08-28T06:46:50.588Z,20.30
2022-08-28T06:49:17.889Z,20.72
2022-08-28T06:51:45.086Z,20.62
2022-08-28T06:54:12.069Z,20.57
2022-08-28T06:56:39.297Z,20.76
2022-08-28T06:59:06.424Z,20.48
2022-08-28T07:01:37.065Z,20.42
2022-08-28T07:04:09.846Z,21.03
2022-08-28T07:06:40.497Z,21.05
2022-08-28T07:09:13.625Z,21.05
2022-08-28T07:11:41.052Z,21.05
2022-08-28T07:14:08.367Z,20.97
2022-08-28T07:16:39.050Z,20.50
2022-08-28T07:19:12.110Z,21.04
2022-08-28T07:21:43.404Z,20.76
2022-08-28T07:24:14.844Z,20.82
2022-08-28T07:26:43.748Z,20.51
2022-08-28T07:29:12.840Z,20.95
2022-08-28T07:31:48.389Z,20.64
2022-08-28T07:34:18.649Z,20.94
2022-08-28T07:36:45.986Z,20.75
2022-08-28T07:39:15.365Z,21.37
2022-08-28T07:41:43.196Z,20.62
2022-08-28T07:44:32.092Z,21.42
2022-08-28T07:47:04.098Z,21.23
2022-08-28T07:49:34.497Z,21.32
2022-08-28T07:52:02.594Z,21.32
2022-08-28T07:54:29.546Z,21.71
2022-08-28T07:56:56.815Z,21.84
2022-08-28T07:59:23.837Z,22.16
2022-08-28T08:01:51.953Z,21.26
2022-08-28T08:04:20.934Z,21.92
2022-08-28T08:06:48.615Z,22.30
2022-08-28T08:09:19.708Z,22.06
2022-08-28T08:11:49.706Z,21.69
2022-08-28T08:14:17.250Z,21.95
2022-08-28T08:16:46.615Z,22.06
2022-08-28T08:19:14.319Z,22.02
2022-08-28T08:21:48.353Z,22.20
2022-08-28T08:24:26.276Z,22.00
2022-08-28T08:27:00.140Z,21.67
2022-08-28T08:29:31.687Z,21.93
2022-08-28T08:32:06.039Z,22.55
2022-08-28T08:34:36.536Z,22.90
2022-08-28T08:37:05.664Z,22.89
2022-08-28T08:39:34.814Z,22.38
2022-08-28T08:42:07.552Z,22.49
2022-08-28T08:44:41.357Z,22.26
2022-08-28T08:47:23.202Z,22.66
2022-08-28T08:50:21.711Z,23.08
2022-08-28T08:53:21.938Z,22.96
2022-08-28T08:55:56.851Z,23.16
2022-08-28T08:58:48.857Z,23.46
2022-08-28T09:01:39.210Z,23.18
2022-08-28T09:04:46.958Z,23.39
2022-08-28T09:07:34.251Z,22.50
2022-08-28T09:10:01.402Z,23.81
2022-08-28T09:12:33.230Z,23.66
2022-08-28T09:15:05.867Z,23.19
2022-08-28T09:17:42.445Z,24.21
2022-08-28T09:20:17.013Z,24.14
2022-08-28T09:22:48.116Z,23.65
2022-08-28T09:25:44.284Z,23.19
2022-08-28T09:28:28.220Z,23.42
2022-08-28T09:31:20.015Z,23.23
2022-08-28T09:33:52.178Z,23.60
2022-08-28T09:36:38.608Z,24.16
2022-08-28T09:39:17.419Z,24.30
2022-08-28T09:42:24.708Z,25.13
2022-08-28T09:45:09.082Z,24.85
2022-08-28T09:47:48.734Z,24.49
2022-08-28T09:50:31.398Z,24.80
2022-08-28T09:53:11.450Z,25.55
2022-08-28T09:56:17.623Z,24.75
2022-08-28T09:58:54.743Z,25.70
2022-08-28T10:01:47.424Z,24.69
2022-08-28T10:05:06.643Z,25.51
2022-08-28T10:07:58.376Z,25.46
2022-08-28T10:10:41.453Z,25.11
2022-08-28T10:13:19.297Z,25.74
2022-08-28T10:16:22.194Z,25.53
2022-08-28T10:19:11.941Z,25.94
2022-08-28T10:22:01.763Z,26.11
2022-08-28T10:25:10.857Z,26.07
2022-08-28T10:28:53.932Z,25.97
2022-08-28T10:31:59.380Z,25.50
2022-08-28T10:34:58.961Z,26.43
2022-08-28T10:38:05.797Z,25.71
2022-08-28T10:40:43.068Z,26.56
2022-08-28T10:43:37.463Z,25.05
2022-08-28T10:46:12.455Z,25.30
2022-08-28T10:49:03.524Z,25.47
2022-08-28T10:51:51.761Z,25.64
2022-08-28T10:54:33.437Z,26.19
2022-08-28T10:57:31.013Z,25.23
2022-08-28T11:00:04.333Z,26.00
2022-08-28T11:02:33.066Z,25.98
2022-08-28T11:05:00.451Z,26.38
2022-08-28T11:07:41.746Z,25.94
2022-08-28T11:10:32.192Z,25.26
2022-08-28T11:13:00.030Z,25.58
2022-08-28T11:15:37.218Z,27.17
2022-08-28T11:18:17.719Z,27.49
2022-08-28T11:21:26.390Z,27.09
2022-08-28T11:24:05.903Z,26.81
2022-08-28T11:27:02.561Z,26.20
2022-08-28T11:30:04.077Z,27.01
2022-08-28T11:32:33.979Z,26.77
2022-08-28T11:35:13.045Z,26.69
2022-08-28T11:37:49.673Z,27.10
2022-08-28T11:40:40.755Z,27.63
2022-08-28T11:43:16.963Z,27.21
2022-08-28T11:45:45.692Z,27.84
2022-08-28T11:48:23.123Z,26.80
2022-08-28T11:51:04.225Z,27.95
2022-08-28T11:54:11.943Z,28.35
2022-08-28T11:57:08.354Z,26.61
2022-08-28T12:00:01.860Z,26.40
2022-08-28T12:02:40.560Z,26.99
2022-08-28T12:05:32.586Z,26.61
2022-08-28T12:08:05.080Z,27.85
2022-08-28T12:10:32.324Z,27.51
2022-08-28T12:13:02.527Z,27.66
2022-08-28T12:15:32.347Z,27.98
2022-08-28T12:18:11.890Z,27.29
2022-08-28T12:20:51.474Z,27.97
2022-08-28T12:23:41.657Z,28.43
2022-08-28T12:26:30.129Z,27.29
2022-08-28T12:29:30.819Z,28.16
2022-08-28T12:32:44.091Z,27.53
2022-08-28T12:35:29.802Z,28.36
2022-08-28T12:38:05.095Z,28.89
2022-08-28T12:40:41.574Z,27.91
2022-08-28T12:43:15.309Z,27.91
2022-08-28T12:46:02.904Z,28.93
2022-08-28T12:48:35.103Z,27.76
2022-08-28T12:51:15.166Z,28.30
2022-08-28T12:53:50.261Z,28.22
2022-08-28T12:56:21.445Z,28.72
2022-08-28T12:58:49.501Z,29.11
2022-08-28T13:01:29.686Z,30.19
2022-08-28T13:04:01.383Z,29.59
2022-08-28T13:06:34.495Z,29.21
2022-08-28T13:09:18.890Z,28.76
2022-08-28T13:11:51.388Z,28.49
2022-08-28T13:14:47.114Z,29.28
2022-08-28T13:17:35.615Z,29.91
2022-08-28T13:20:07.544Z,28.91
2022-08-28T13:22:41.618Z,29.24
2022-08-28T13:25:37.432Z,28.69
2022-08-28T13:28:17.695Z,28.27
2022-08-28T13:30:59.870Z,29.59
2022-08-28T13:33:27.337Z,29.41
2022-08-28T13:35:55.153Z,29.29
2022-08-28T13:38:25.065Z,29.37
2022-08-28T13:41:00.185Z,29.40
2022-08-28T13:43:46.941Z,30.03
2022-08-28T13:46:14.390Z,29.92
2022-08-28T13:48:41.365Z,30.38
2022-08-28T13:51:20.941Z,30.39
2022-08-28T13:53:50.436Z,30.18
2022-08-28T13:56:19.696Z,30.75
2022-08-28T13:58:57.489Z,30.54
2022-08-28T14:01:49.142Z,30.37
2022-08-28T14:04:16.447Z,29.51
2022-08-28T14:06:44.392Z,29.73
2022-08-28T14:09:17.571Z,29.38
2022-08-28T14:11:47.154Z,29.04
2022-08-28T14:14:14.822Z,29.80
2022-08-28T14:16:42.698Z,30.34
2022-08-28T14:19:09.855Z,29.82
2022-08-28T14:21:40.669Z,29.39
2022-08-28T14:24:08.629Z,29.69
2022-08-28T14:26:36.532Z,30.34
2022-08-28T14:29:06.838Z,29.72
2022-08-28T14:31:40.816Z,30.72
2022-08-28T14:34:12.624Z,29.65
2022-08-28T14:36:41.434Z,29.92
2022-08-28T14:39:11.547Z,29.24
2022-08-28T14:41:46.774Z,28.84
2022-08-28T14:44:14.930Z,29.27
2022-08-28T14:46:45.510Z,29.62
2022-08-28T14:49:16.691Z,30.11
2022-08-28T14:51:45.724Z,30.31
2022-08-28T14:54:16.166Z,30.68
2022-08-28T14:56:46.029Z,30.09
2022-08-28T14:59:24.046Z,30.71
2022-08-28T15:01:56.035Z,29.92
2022-08-28T15:04:24.933Z,30.13
2022-08-28T15:06:58.529Z,30.01
2022-08-28T15:09:26.536Z,30.06
2022-08-28T15:11:54.348Z,30.38
2022-08-28T15:14:21.503Z,29.63
2022-08-28T15:16:49.336Z,30.10
2022-08-28T15:19:18.142Z,30.29
2022-08-28T15:21:52.336Z,31.16
2022-08-28T15:24:23.474Z,30.10
2022-08-28T15:26:50.752Z,30.34
2022-08-28T15:29:18.109Z,29.99
2022-08-28T15:31:49.274Z,29.81
2022-08-28T15:34:21.264Z,30.05
2022-08-28T15:36:55.555Z,29.64
2022-08-28T15:39:44.194Z,29.32
2022-08-28T15:42:11.690Z,30.09
2022-08-28T15:44:39.164Z,30.02
2022-08-28T15:47:07.301Z,30.39
2022-08-28T15:49:41.527Z,29.28
2022-08-28T15:52:14.371Z,29.41
2022-08-28T15:54:41.950Z,29.47
2022-08-28T15:57:09.799Z,29.93
2022-08-28T15:59:48.973Z,30.76
2022-08-28T16:02:20.948Z,30.15
2022-08-28T16:04:48.803Z,29.67
2022-08-28T16:07:17.289Z,30.08
2022-08-28T16:09:44.839Z,30.53
2022-08-28T16:12:12.279Z,30.78
2022-08-28T16:14:39.369Z,29.71
2022-08-28T16:17:10.784Z,29.72
2022-08-28T16:19:42.699Z,29.90
2022-08-28T16:22:11.035Z,29.40
2022-08-28T16:24:38.944Z,29.98
2022-08-28T16:27:08.672Z,29.69
2022-08-28T16:29:39.688Z,29.45
2022-08-28T16:32:06.903Z,29.08
2022-08-28T16:34:34.866Z,29.26
2022-08-28T16:37:04.245Z,29.61
2022-08-28T16:39:31.675Z,29.92
2022-08-28T16:41:58.708Z,29.44
2022-08-28T16:44:26.789Z,29.03
2022-08-28T16:46:55.782Z,29.72
2022-08-28T16:49:23.974Z,29.74
2022-08-28T16:51:51.509Z,30.40
2022-08-28T16:54:18.683Z,29.46
2022-08-28T16:56:46.020Z,28.84
2022-08-28T16:59:16.514Z,28.74
2022-08-28T17:01:44.766Z,29.08
2022-08-28T17:04:12.247Z,28.69
2022-08-28T17:06:40.202Z,28.73
2022-08-28T17:09:07.224Z,28.52
2022-08-28T17:11:34.474Z,28.48
2022-08-28T17:14:02.074Z,28.95
2022-08-28T17:16:31.501Z,28.27
2022-08-28T17:18:59.584Z,28.72
2022-08-28T17:21:45.545Z,28.03
2022-08-28T17:24:13.020Z,27.92
2022-08-28T17:26:41.105Z,28.05
2022-08-28T17:29:08.711Z,28.19
2022-08-28T17:31:37.687Z,28.15
2022-08-28T17:34:07.177Z,27.79
2022-08-28T17:36:38.339Z,27.49
2022-08-28T17:39:09.931Z,28.14
2022-08-28T17:41:38.100Z,28.14
2022-08-28T17:44:06.227Z,27.97
2022-08-28T17:46:37.732Z,27.67
2022-08-28T17:49:07.637Z,27.65
2022-08-28T17:51:43.528Z,27.61
2022-08-28T17:54:14.720Z,27.22
2022-08-28T17:56:42.285Z,27.41
2022-08-28T17:59:11.604Z,27.65
2022-08-28T18:01:38.901Z,27.19
2022-08-28T18:04:06.443Z,27.37
2022-08-28T18:06:34.498Z,26.97
2022-08-28T18:09:01.649Z,27.09
2022-08-28T18:11:29.317Z,26.85
2022-08-28T18:13:56.370Z,26.77
2022-08-28T18:16:27.621Z,26.71
2022-08-28T18:18:57.805Z,26.66
2022-08-28T18:21:24.860Z,26.38
2022-08-28T18:23:51.957Z,26.36
2022-08-28T18:26:19.145Z,26.26
2022-08-28T18:28:46.698Z,25.98
2022-08-28T18:31:14.205Z,26.18
2022-08-28T18:33:41.204Z,25.87
2022-08-28T18:36:11.487Z,26.04
2022-08-28T18:38:40.259Z,25.53
2022-08-28T18:41:08.626Z,25.85
2022-08-28T18:43:36.876Z,25.51
2022-08-28T18:46:07.392Z,25.43
2022-08-28T18:48:36.779Z,25.08
2022-08-28T18:51:07.793Z,25.48
2022-08-28T18:53:36.136Z,25.22
2022-08-28T18:56:03.955Z,25.46
2022-08-28T18:58:32.442Z,25.49
2022-08-28T19:01:01.491Z,25.58
2022-08-28T19:03:29.735Z,25.41
2022-08-28T19:05:57.304Z,25.03
2022-08-28T19:08:25.936Z,25.15
2022-08-28T19:10:54.294Z,25.02
2022-08-28T19:13:22.491Z,25.16
2022-08-28T19:15:52.579Z,24.73
2022-08-28T19:18:20.314Z,25.13
2022-08-28T19:20:48.721Z,24.88
2022-08-28T19:23:17.840Z,24.88
2022-08-28T19:25:45.624Z,25.38
2022-08-28T19:28:12.820Z,25.79
2022-08-28T19:30:40.430Z,25.14
2022-08-28T19:33:08.656Z,24.66
2022-08-28T19:35:35.825Z,25.02
2022-08-28T19:38:03.018Z,24.74
2022-08-28T19:40:30.084Z,24.77
2022-08-28T19:42:57.402Z,25.05
2022-08-28T19:45:24.497Z,24.80
2022-08-28T19:47:52.305Z,25.15
2022-08-28T19:50:19.944Z,24.98
2022-08-28T19:52:46.993Z,24.85
2022-08-28T19:55:25.903Z,25.36
2022-08-28T19:57:53.822Z,24.90
2022-08-28T20:00:25.597Z,24.62
2022-08-28T20:02:52.823Z,24.17
2022-08-28T20:05:21.977Z,24.33
2022-08-28T20:07:49.265Z,24.17
2022-08-28T20:10:17.777Z,24.54
2022-08-28T20:12:48.683Z,24.72
2022-08-28T20:15:19.394Z,24.29
2022-08-28T20:17:49.571Z,24.21
2022-08-28T20:20:24.582Z,23.49
2022-08-28T20:22:54.409Z,23.57
2022-08-28T20:25:21.946Z,23.45
2022-08-28T20:27:49.205Z,23.54
2022-08-28T20:30:17.970Z,24.24
2022-08-28T20:32:45.128Z,23.89
2022-08-28T20:35:13.621Z,24.07
2022-08-28T20:37:45.485Z,23.84
2022-08-28T20:40:19.593Z,23.37
2022-08-28T20:42:48.733Z,23.37
2022-08-28T20:45:18.009Z,23.77
2022-08-28T20:47:45.614Z,23.82
2022-08-28T20:50:14.029Z,22.86
2022-08-28T20:52:41.715Z,22.81
2022-08-28T20:55:10.225Z,22.79
2022-08-28T20:57:37.562Z,23.23
2022-08-28T21:00:08.687Z,23.20
2022-08-28T21:02:36.592Z,23.42
2022-08-28T21:05:05.485Z,22.96
2022-08-28T21:07:34.173Z,22.92
2022-08-28T21:10:07.073Z,22.84
2022-08-28T21:12:39.655Z,23.73
2022-08-28T21:15:10.232Z,23.00
2022-08-28T21:17:37.325Z,22.63
2022-08-28T21:20:14.030Z,22.85
2022-08-28T21:22:42.390Z,23.13
2022-08-28T21:25:10.973Z,23.28
2022-08-28T21:27:39.130Z,23.09
2022-08-28T21:30:08.442Z,22.66
2022-08-28T21:32:36.705Z,22.80
2022-08-28T21:35:08.584Z,22.62
2022-08-28T21:37:36.327Z,22.25
2022-08-28T21:40:07.946Z,22.66
2022-08-28T21:42:35.738Z,22.42
2022-08-28T21:45:07.259Z,22.79
2022-08-28T21:47:38.145Z,22.54
2022-08-28T21:50:06.543Z,22.19
2022-08-28T21:52:34.530Z,22.14
2022-08-28T21:55:07.145Z,21.98
2022-08-28T21:57:34.772Z,21.94
2022-08-28T22:00:04.295Z,21.77
2022-08-28T22:02:33.374Z,21.76
2022-08-28T22:05:00.720Z,22.18
2022-08-28T22:07:28.108Z,22.64
2022-08-28T22:09:55.748Z,22.52
2022-08-28T22:12:22.840Z,21.94
2022-08-28T22:14:49.844Z,21.68
2022-08-28T22:17:16.866Z,21.49
2022-08-28T22:19:46.694Z,21.97
2022-08-28T22:22:33.793Z,21.13
2022-08-28T22:25:01.087Z,20.92
2022-08-28T22:27:28.387Z,21.42
2022-08-28T22:29:56.267Z,21.31
2022-08-28T22:32:25.729Z,22.34
2022-08-28T22:34:54.768Z,21.17
2022-08-28T22:37:22.962Z,21.01
2022-08-28T22:39:50.363Z,21.23
2022-08-28T22:42:17.632Z,21.05
2022-08-28T22:44:44.679Z,20.93
2022-08-28T22:47:11.808Z,20.49
2022-08-28T22:49:39.827Z,20.79
2022-08-28T22:52:10.601Z,21.04
2022-08-28T22:54:38.107Z,21.26
2022-08-28T22:57:05.829Z,21.07
2022-08-28T22:59:34.675Z,21.01
2022-08-28T23:02:03.637Z,21.15
2022-08-28T23:04:31.216Z,20.83
2022-08-28T23:06:58.384Z,20.78
2022-08-28T23:09:25.612Z,20.71
2022-08-28T23:11:52.572Z,20.83
2022-08-28T23:14:19.591Z,20.14
2022-08-28T23:16:46.648Z,20.82
2022-08-28T23:19:14.122Z,20.88
2022-08-28T23:21:44.177Z,20.55
2022-08-28T23:24:18.813Z,20.93
2022-08-28T23:26:46.247Z,21.51
2022-08-28T23:29:14.788Z,21.05
2022-08-28T23:31:41.907Z,20.67
2022-08-28T23:34:09.600Z,20.75
2022-08-28T23:36:39.514Z,20.18
2022-08-28T23:39:10.237Z,19.87
2022-08-28T23:41:37.615Z,19.95
2022-08-28T23:44:08.808Z,19.93
2022-08-28T23:46:36.682Z,20.48
2022-08-28T23:49:08.698Z,20.85
2022-08-28T23:51:35.800Z,20.31
2022-08-28T23:54:02.893Z,20.91
2022-08-28T23:58:58.026Z,19.58
